Time;durP1;ratioP1;P1;durP2;ratioP2;P2;SDS_P1;SDS_P2;PMS_P1;PMS_P2;Temp;Humidity;BMP_temperature;BMP_pressure;BME280_temperature;BME280_humidity;BME280_pressure;Samples;Min_cycle;Max_cycle;Signal;HPM_P1;HPM_P2
2022/11/16 00:01:03;;;;;;;3.08;2.70;;;19.00;50.60;;;;;;5113491;28;20411;-10
2022/11/16 00:03:30;;;;;;;3.42;2.75;;;19.00;50.60;;;;;;5113591;28;20083;-10
2022/11/16 00:05:57;;;;;;;3.35;2.47;;;19.00;50.70;;;;;;5113797;28;20051;-10
2022/11/16 00:08:23;;;;;;;2.90;2.60;;;19.00;50.60;;;;;;5095561;28;20044;-10
2022/11/16 00:10:48;;;;;;;3.10;2.80;;;19.00;50.60;;;;;;5113523;28;20055;-10
2022/11/16 00:13:14;;;;;;;2.85;2.58;;;19.00;50.70;;;;;;5113665;28;20511;-10
2022/11/16 00:15:39;;;;;;;3.17;2.75;;;19.00;50.80;;;;;;5113278;28;20415;-10
2022/11/16 00:18:05;;;;;;;2.88;2.58;;;18.90;50.70;;;;;;5113445;28;20419;-10
2022/11/16 00:20:30;;;;;;;3.55;2.95;;;18.90;50.70;;;;;;5113329;28;20448;-10
2022/11/16 00:22:56;;;;;;;3.90;2.90;;;19.00;50.70;;;;;;5113829;28;20048;-10
2022/11/16 00:25:21;;;;;;;3.30;2.85;;;19.00;50.80;;;;;;5113195;28;20051;-10
2022/11/16 00:27:47;;;;;;;3.17;2.80;;;18.90;50.70;;;;;;5113701;28;20044;-10
2022/11/16 00:30:13;;;;;;;2.95;2.70;;;18.90;50.80;;;;;;5113719;28;20081;-10
2022/11/16 00:32:38;;;;;;;2.75;2.40;;;18.90;50.80;;;;;;5113122;28;20063;-10
2022/11/16 00:35:04;;;;;;;3.05;2.55;;;18.90;50.80;;;;;;5113151;28;20411;-10
2022/11/16 00:37:30;;;;;;;2.85;2.53;;;18.90;50.80;;;;;;5113079;28;20063;-10
2022/11/16 00:39:55;;;;;;;2.95;2.65;;;18.90;50.90;;;;;;5112952;28;20411;-10
2022/11/16 00:42:21;;;;;;;2.85;2.58;;;18.90;50.80;;;;;;5095299;28;20372;-10
2022/11/16 00:44:47;;;;;;;3.17;2.88;;;18.90;50.90;;;;;;5113511;28;20043;-10
2022/11/16 00:47:12;;;;;;;4.20;2.60;;;18.90;50.90;;;;;;5114644;28;20096;-10
2022/11/16 00:49:38;;;;;;;3.05;2.53;;;18.90;50.90;;;;;;5097223;28;20096;-10
2022/11/16 00:52:03;;;;;;;2.60;2.40;;;18.90;50.90;;;;;;5116602;28;20380;-10
2022/11/16 00:54:29;;;;;;;3.08;2.80;;;18.90;50.90;;;;;;5116741;28;20434;-10
2022/11/16 00:56:55;;;;;;;3.70;2.70;;;18.80;50.90;;;;;;5098099;28;20438;-10
2022/11/16 00:59:22;;;;;;;2.90;2.53;;;18.90;50.90;;;;;;5098021;28;20055;-10
2022/11/16 01:01:51;;;;;;;2.75;2.38;;;18.90;50.80;;;;;;5097966;28;20105;-10
2022/11/16 01:04:17;;;;;;;2.58;2.38;;;18.90;50.90;;;;;;5097996;28;20056;-10
2022/11/16 01:06:42;;;;;;;2.83;2.63;;;18.90;50.90;;;;;;5116200;28;20052;-10
2022/11/16 01:09:08;;;;;;;2.83;2.55;;;18.90;50.90;;;;;;5116007;28;20567;-10
2022/11/16 01:14:17;;;;;;;2.55;2.35;;;18.80;50.90;;;;;;5116740;28;20096;-10
2022/11/16 01:16:43;;;;;;;3.10;2.70;;;18.90;51.00;;;;;;5115944;28;20052;-10
2022/11/16 01:19:09;;;;;;;2.72;2.38;;;18.80;51.00;;;;;;5115987;28;20126;-10
2022/11/16 01:21:34;;;;;;;2.47;2.28;;;18.80;50.90;;;;;;5115845;28;20054;-10
2022/11/16 01:24:00;;;;;;;2.72;2.38;;;18.80;50.90;;;;;;5115922;28;20060;-10
2022/11/16 01:26:26;;;;;;;3.20;2.90;;;18.80;50.90;;;;;;5097562;28;20142;-10
2022/11/16 01:28:52;;;;;;;3.33;3.03;;;18.80;50.90;;;;;;5097254;28;20047;-22
2022/11/16 01:31:18;;;;;;;3.50;2.53;;;18.90;51.00;;;;;;5113418;28;20209;-10
2022/11/16 01:33:46;;;;;;;3.00;2.70;;;18.80;51.00;;;;;;5097474;28;20131;-10
2022/11/16 01:36:22;;;;;;;3.28;2.53;;;18.80;51.50;;;;;;5097510;28;20044;-10
2022/11/16 01:38:49;;;;;;;3.33;3.03;;;18.80;51.00;;;;;;5115315;28;20135;-10
2022/11/16 01:41:20;;;;;;;3.55;2.80;;;18.90;51.00;;;;;;5097372;28;20475;-10
2022/11/16 01:43:54;;;;;;;3.10;2.50;;;18.80;51.00;;;;;;5097836;28;20391;-10
2022/11/16 01:46:23;;;;;;;2.88;2.58;;;18.90;51.00;;;;;;5095726;28;20063;-10
2022/11/16 01:48:58;;;;;;;3.30;2.92;;;18.80;51.00;;;;;;5097519;28;20167;-10
2022/11/16 01:51:23;;;;;;;3.20;2.90;;;18.80;51.00;;;;;;5095814;28;20200;-10
2022/11/16 01:53:49;;;;;;;2.58;2.38;;;18.80;51.00;;;;;;5097235;28;20086;-10
2022/11/16 01:56:16;;;;;;;2.72;2.53;;;18.80;51.00;;;;;;5097074;28;20048;-10
2022/11/16 01:58:48;;;;;;;2.95;2.65;;;18.90;51.00;;;;;;5115198;28;20104;-10
2022/11/16 02:01:20;;;;;;;2.58;2.38;;;18.80;51.00;;;;;;5096900;28;20052;-10
2022/11/16 02:03:50;;;;;;;3.17;2.70;;;18.80;51.00;;;;;;5097703;28;20458;-10
2022/11/16 02:06:25;;;;;;;3.00;2.70;;;18.80;51.00;;;;;;5114303;28;20150;-10
2022/11/16 02:12:25;;;;;;;3.15;2.75;;;18.80;51.00;;;;;;5113956;28;20103;-10
2022/11/16 02:14:58;;;;;;;2.97;2.67;;;18.80;51.00;;;;;;5097148;28;20052;-10
2022/11/16 02:17:37;;;;;;;4.55;2.70;;;18.80;51.00;;;;;;5096829;28;20495;-10
2022/11/16 02:20:29;;;;;;;2.83;2.53;;;18.80;51.00;;;;;;5096771;28;20054;-10
2022/11/16 02:22:58;;;;;;;3.83;3.20;;;18.80;51.00;;;;;;5115188;28;20479;-10
2022/11/16 02:25:36;;;;;;;2.88;2.65;;;18.80;51.00;;;;;;5115345;28;20054;-10
2022/11/16 02:28:28;;;;;;;2.80;2.58;;;18.80;51.00;;;;;;5096970;28;20059;-11
2022/11/16 02:30:56;;;;;;;3.13;2.50;;;18.80;51.00;;;;;;5113873;28;20144;-10
2022/11/16 02:33:29;;;;;;;3.40;3.10;;;18.80;51.00;;;;;;5096586;28;20052;-10
2022/11/16 02:35:57;;;;;;;2.75;2.50;;;18.90;51.00;;;;;;5115233;28;20134;-10
2022/11/16 02:38:27;;;;;;;2.80;2.50;;;18.80;51.00;;;;;;5095604;28;20052;-11
2022/11/16 02:40:59;;;;;;;2.88;2.47;;;18.80;50.90;;;;;;5115377;28;20051;-10
2022/11/16 02:43:46;;;;;;;2.97;2.67;;;18.90;51.00;;;;;;5096080;28;20051;-10
2022/11/16 02:46:18;;;;;;;2.97;2.67;;;18.80;50.90;;;;;;5115009;28;20055;-11
2022/11/16 02:48:48;;;;;;;3.10;2.75;;;18.90;50.90;;;;;;5115026;28;20048;-10
2022/11/16 02:51:16;;;;;;;3.47;2.95;;;18.80;50.90;;;;;;5096318;28;20126;-10
2022/11/16 02:54:19;;;;;;;3.20;2.70;;;18.80;50.90;;;;;;5113785;28;20044;-10
2022/11/16 02:57:03;;;;;;;2.65;2.38;;;18.90;50.70;;;;;;5069237;28;20048;-10
2022/11/16 02:59:44;;;;;;;2.85;2.63;;;19.00;50.50;;;;;;5096261;28;20079;-10
2022/11/16 03:02:24;;;;;;;2.95;2.65;;;19.10;50.30;;;;;;5096771;28;20047;-10
2022/11/16 03:04:59;;;;;;;3.05;2.75;;;19.20;50.20;;;;;;5114810;28;20055;-11
2022/11/16 03:07:41;;;;;;;2.45;2.25;;;19.20;50.10;;;;;;5095999;28;20403;-11
2022/11/16 03:10:08;;;;;;;2.72;2.40;;;19.20;50.00;;;;;;5114070;28;20487;-10
2022/11/16 03:12:36;;;;;;;2.88;2.63;;;19.30;49.90;;;;;;5095914;28;20051;-10
2022/11/16 03:15:04;;;;;;;2.70;2.50;;;19.30;49.90;;;;;;5095582;28;20056;-10
2022/11/16 03:17:37;;;;;;;2.72;2.50;;;19.30;49.80;;;;;;5095791;28;20503;-11
2022/11/16 03:20:10;;;;;;;2.78;2.50;;;19.30;49.70;;;;;;5095782;28;20062;-10
2022/11/16 03:22:42;;;;;;;3.17;2.30;;;19.40;49.60;;;;;;5096305;28;20048;-10
2022/11/16 03:25:10;;;;;;;;;;;19.40;49.60;;;;;;5094674;28;20101;-10
2022/11/16 03:27:43;;;;;;;2.88;2.58;;;19.50;49.50;;;;;;5095597;28;19915;-11
2022/11/16 03:30:13;;;;;;;3.10;2.35;;;19.50;49.40;;;;;;5092668;28;20081;-10
2022/11/16 03:32:50;;;;;;;2.58;2.22;;;19.60;49.60;;;;;;5094538;28;20055;-10
2022/11/16 03:35:30;;;;;;;2.90;2.60;;;19.60;49.20;;;;;;5095497;28;20051;-10
2022/11/16 03:37:58;;;;;;;2.60;2.40;;;19.60;49.20;;;;;;5095616;28;20139;-10
2022/11/16 03:40:27;;;;;;;2.47;2.28;;;19.60;49.10;;;;;;5095901;28;20100;-10
2022/11/16 03:42:55;;;;;;;2.47;2.20;;;19.60;49.10;;;;;;5095450;28;20477;-10
2022/11/16 03:45:22;;;;;;;3.08;2.40;;;19.70;49.10;;;;;;5095389;28;20043;-10
2022/11/16 03:47:49;;;;;;;2.72;2.45;;;19.70;49.60;;;;;;5112240;28;20055;-11
2022/11/16 03:50:15;;;;;;;2.78;2.53;;;19.70;49.00;;;;;;5114012;28;20135;-10
2022/11/16 03:52:42;;;;;;;2.88;2.50;;;19.70;49.00;;;;;;5112379;28;20047;-10
2022/11/16 03:55:08;;;;;;;3.08;2.47;;;19.80;48.90;;;;;;5078918;28;20099;-10
2022/11/16 03:57:34;;;;;;;2.97;2.67;;;19.80;48.90;;;;;;5094130;28;20051;-11
2022/11/16 04:00:00;;;;;;;3.03;2.72;;;19.80;48.90;;;;;;5094125;28;20055;-10
2022/11/16 04:02:25;;;;;;;2.70;2.50;;;19.80;48.90;;;;;;5095125;28;20057;-10
2022/11/16 04:24:38;;;;;;;3.00;2.70;;;19.90;48.60;;;;;;5112309;28;20051;-10
2022/11/16 04:29:56;;;;;;;2.63;2.42;;;19.90;48.60;;;;;;5112225;28;20051;-10
2022/11/16 04:37:53;;;;;;;2.50;2.30;;;20.00;48.50;;;;;;5110492;28;20044;-10
2022/11/16 04:40:29;;;;;;;2.72;2.45;;;20.00;48.50;;;;;;5094821;28;20051;-10
2022/11/16 04:43:02;;;;;;;2.63;2.42;;;20.00;48.50;;;;;;5111318;28;20048;-10
2022/11/16 04:48:18;;;;;;;2.50;2.30;;;20.00;48.50;;;;;;5111539;28;20127;-10
2022/11/16 04:50:46;;;;;;;2.67;2.47;;;20.00;48.50;;;;;;5095149;28;20059;-10
2022/11/16 04:53:12;;;;;;;3.03;2.50;;;20.00;48.50;;;;;;5094809;28;20074;-10
2022/11/16 04:55:44;;;;;;;2.50;2.20;;;20.00;48.50;;;;;;5112959;28;20051;-11
2022/11/16 04:58:10;;;;;;;3.15;2.65;;;20.00;48.50;;;;;;5094450;28;20419;-10
2022/11/16 05:00:36;;;;;;;2.60;2.40;;;20.00;48.50;;;;;;5093213;28;20076;-10
2022/11/16 05:03:03;;;;;;;3.05;2.75;;;20.00;48.50;;;;;;5113051;28;20094;-10
2022/11/16 05:05:29;;;;;;;2.85;2.58;;;20.00;48.50;;;;;;5093559;28;20051;-11
2022/11/16 05:07:55;;;;;;;2.90;2.70;;;20.00;48.50;;;;;;5076313;28;20048;-10
2022/11/16 05:10:26;;;;;;;1.87;1.67;;;20.00;48.50;;;;;;5094694;28;20054;-10
2022/11/16 05:12:52;;;;;;;2.80;2.60;;;20.00;48.50;;;;;;5092513;28;20408;-10
2022/11/16 05:15:18;;;;;;;2.70;2.22;;;20.00;48.40;;;;;;5094232;28;20059;-10
2022/11/16 05:17:45;;;;;;;2.75;2.53;;;20.00;48.50;;;;;;5077089;28;20049;-10
2022/11/16 05:23:02;;;;;;;3.10;2.60;;;20.00;48.50;;;;;;5111193;28;20109;-10
2022/11/16 05:25:32;;;;;;;3.42;2.70;;;20.00;48.50;;;;;;5094159;28;20448;-10
2022/11/16 05:27:58;;;;;;;2.50;2.30;;;20.00;48.50;;;;;;5093011;28;20084;-11
2022/11/16 05:30:24;;;;;;;2.80;2.47;;;20.00;48.40;;;;;;5111021;28;20048;-10
2022/11/16 05:32:49;;;;;;;2.75;2.55;;;20.00;48.40;;;;;;5094948;28;20058;-10
2022/11/16 05:35:17;;;;;;;2.63;2.38;;;20.00;48.50;;;;;;5097377;28;20476;-10
2022/11/16 05:37:43;;;;;;;2.92;2.58;;;20.00;48.50;;;;;;5097853;28;20046;-11
2022/11/16 05:40:09;;;;;;;3.13;2.83;;;20.00;48.50;;;;;;5097898;28;20047;-10
2022/11/16 05:42:41;;;;;;;2.47;2.28;;;20.00;48.40;;;;;;5097522;28;20518;-10
2022/11/16 05:45:07;;;;;;;2.67;2.45;;;20.00;48.40;;;;;;5097719;28;20043;-10
2022/11/16 05:47:33;;;;;;;3.17;2.60;;;20.00;48.40;;;;;;5097225;28;20062;-11
2022/11/16 05:50:00;;;;;;;2.40;2.20;;;20.00;48.40;;;;;;5097408;28;20051;-10
2022/11/16 05:52:29;;;;;;;2.60;2.17;;;20.00;48.40;;;;;;5113040;28;20513;-10
2022/11/16 05:55:00;;;;;;;2.63;2.42;;;20.00;48.50;;;;;;5113546;28;20054;-10
2022/11/16 05:57:28;;;;;;;2.90;2.58;;;20.00;48.50;;;;;;5097166;28;20047;-11
2022/11/16 05:59:53;;;;;;;2.80;2.50;;;20.00;48.50;;;;;;5097114;28;20054;-10
2022/11/16 06:02:19;;;;;;;3.00;2.65;;;20.00;48.40;;;;;;5097123;28;20058;-10
2022/11/16 06:04:46;;;;;;;2.45;2.22;;;20.00;48.40;;;;;;5097102;28;20043;-10
2022/11/16 06:07:12;;;;;;;2.60;2.40;;;20.00;48.50;;;;;;5097671;28;20104;-10
2022/11/16 06:09:37;;;;;;;2.75;2.50;;;20.00;48.50;;;;;;5097336;28;20135;-10
2022/11/16 06:12:12;;;;;;;3.03;2.75;;;20.00;48.50;;;;;;5097261;28;20155;-10
2022/11/16 06:14:37;;;;;;;2.67;2.47;;;20.00;48.50;;;;;;5096841;28;20531;-10
2022/11/16 06:17:04;;;;;;;2.40;2.20;;;20.00;48.50;;;;;;5096768;28;20048;-10
2022/11/16 06:19:31;;;;;;;2.60;2.33;;;20.00;48.50;;;;;;5095121;28;20097;-10
2022/11/16 06:21:58;;;;;;;2.67;2.30;;;20.00;49.00;;;;;;5114084;28;20047;-10
2022/11/16 06:24:26;;;;;;;2.63;2.42;;;20.00;48.50;;;;;;5097108;28;20047;-10
2022/11/16 06:26:53;;;;;;;3.30;2.67;;;20.00;48.50;;;;;;5096655;28;20040;-10
2022/11/16 06:29:19;;;;;;;3.28;2.67;;;20.00;48.50;;;;;;5114232;28;20394;-10
2022/11/16 06:31:45;;;;;;;2.40;2.20;;;20.00;48.50;;;;;;5114853;28;20185;-10
2022/11/16 06:34:11;;;;;;;3.15;2.55;;;20.00;48.50;;;;;;5096064;28;20051;-10
2022/11/16 06:36:37;;;;;;;2.70;2.30;;;20.00;48.50;;;;;;5095342;28;20055;-10
2022/11/16 06:39:03;;;;;;;2.47;2.25;;;20.00;48.50;;;;;;5094369;28;20062;-10
2022/11/16 06:41:33;;;;;;;2.78;2.50;;;20.00;48.50;;;;;;5096826;28;20506;-10
2022/11/16 06:43:59;;;;;;;2.92;2.63;;;20.00;48.50;;;;;;5095121;28;20048;-10
2022/11/16 06:46:31;;;;;;;2.60;2.40;;;19.90;48.40;;;;;;5096078;28;20100;-10
2022/11/16 06:48:57;;;;;;;2.83;2.55;;;20.00;48.50;;;;;;5095326;28;20052;-10
2022/11/16 06:51:22;;;;;;;2.63;2.42;;;19.90;48.40;;;;;;5096275;28;20055;-10
2022/11/16 06:53:48;;;;;;;2.88;2.55;;;19.90;48.50;;;;;;5096338;28;20096;-10
2022/11/16 06:56:15;;;;;;;3.22;2.92;;;19.90;48.50;;;;;;5096075;28;20067;-10
2022/11/16 06:58:56;;;;;;;;;;;19.90;48.50;;;;;;5097374;28;20101;-10
2022/11/16 07:01:22;;;;;;;2.97;2.65;;;19.90;48.50;;;;;;5113138;28;20352;-10
2022/11/16 07:03:49;;;;;;;3.33;2.53;;;19.90;48.50;;;;;;5096063;28;20384;-10
2022/11/16 07:06:15;;;;;;;3.20;2.90;;;19.90;48.50;;;;;;5096310;28;20048;-10
2022/11/16 07:08:44;;;;;;;3.20;2.90;;;19.90;48.50;;;;;;5095769;28;20052;-10
2022/11/16 07:11:11;;;;;;;2.55;2.35;;;19.90;48.50;;;;;;5095933;28;20047;-10
2022/11/16 07:13:37;;;;;;;2.88;2.65;;;19.90;48.60;;;;;;5113385;28;20055;-10
2022/11/16 07:16:09;;;;;;;2.63;2.30;;;19.90;48.60;;;;;;5095528;28;20055;-11
2022/11/16 07:18:39;;;;;;;2.63;2.42;;;19.90;48.60;;;;;;5095812;28;20063;-10
2022/11/16 07:21:06;;;;;;;3.17;2.70;;;19.90;48.60;;;;;;5095549;28;20074;-10
2022/11/16 07:23:32;;;;;;;2.85;2.58;;;19.90;48.50;;;;;;5095728;28;20052;-10
2022/11/16 07:26:03;;;;;;;3.03;2.55;;;19.90;48.60;;;;;;5114153;28;20043;-10
2022/11/16 07:28:37;;;;;;;2.63;2.40;;;19.90;48.50;;;;;;5096000;28;20059;-10
2022/11/16 07:31:05;;;;;;;2.50;2.30;;;19.90;48.50;;;;;;5095408;28;20048;-10
2022/11/16 07:33:31;;;;;;;3.47;2.67;;;20.00;48.60;;;;;;5093927;28;20059;-10
2022/11/16 07:36:36;;;;;;;3.08;2.60;;;19.90;48.50;;;;;;5112824;28;20100;-10
2022/11/16 07:39:02;;;;;;;2.30;2.10;;;20.00;48.50;;;;;;5093594;28;20115;-11
2022/11/16 07:41:28;;;;;;;2.90;2.60;;;20.00;48.50;;;;;;5095676;28;20051;-10
2022/11/16 07:44:06;;;;;;;2.67;2.40;;;20.00;48.50;;;;;;5095698;28;20111;-10
2022/11/16 07:46:31;;;;;;;2.75;2.40;;;20.00;48.50;;;;;;5113870;28;20479;-10
2022/11/16 07:48:57;;;;;;;2.92;2.63;;;20.00;48.50;;;;;;5095128;28;20048;-11
2022/11/16 07:51:23;;;;;;;3.40;2.88;;;20.00;48.50;;;;;;5113507;28;20071;-10
2022/11/16 07:54:03;;;;;;;3.13;2.80;;;20.00;48.50;;;;;;5095309;28;20051;-10
2022/11/16 07:56:29;;;;;;;2.85;2.40;;;20.00;48.40;;;;;;5079596;28;20048;-10
2022/11/16 07:58:55;;;;;;;2.95;2.65;;;20.00;48.40;;;;;;5076805;28;20385;-11
2022/11/16 08:01:21;;;;;;;3.08;2.78;;;20.00;48.40;;;;;;5095498;28;20047;-10
2022/11/16 08:03:52;;;;;;;2.90;2.58;;;20.00;48.40;;;;;;5095112;28;20076;-10
2022/11/16 08:06:28;;;;;;;2.70;2.50;;;20.00;48.40;;;;;;5113734;28;20091;-11
2022/11/16 08:08:55;;;;;;;3.45;2.60;;;20.00;48.40;;;;;;5093688;28;20048;-10
2022/11/16 08:11:21;;;;;;;2.72;2.40;;;20.00;48.40;;;;;;5095077;28;20051;-10
2022/11/16 08:13:49;;;;;;;3.20;2.90;;;20.00;48.40;;;;;;5094389;28;20541;-10
2022/11/16 08:16:18;;;;;;;2.72;2.50;;;20.00;48.40;;;;;;5094941;28;20051;-10
2022/11/16 08:18:46;;;;;;;4.28;2.55;;;20.00;48.30;;;;;;5093454;28;20184;-10
2022/11/16 08:21:14;;;;;;;3.03;2.70;;;20.00;48.30;;;;;;5111974;28;20066;-10
2022/11/16 08:23:43;;;;;;;3.17;2.60;;;20.00;48.40;;;;;;5094885;28;20062;-11
2022/11/16 08:26:16;;;;;;;3.15;2.85;;;20.00;48.30;;;;;;5094685;28;20130;-11
2022/11/16 08:28:50;;;;;;;3.35;2.83;;;20.00;48.30;;;;;;5093285;28;20142;-11
2022/11/16 08:31:19;;;;;;;3.45;3.00;;;20.00;48.30;;;;;;5110682;28;20052;-10
2022/11/16 08:33:53;;;;;;;3.30;2.78;;;20.00;48.30;;;;;;5094584;28;20108;-10
2022/11/16 08:36:19;;;;;;;4.25;2.72;;;20.00;48.30;;;;;;5094505;28;20052;-10
2022/11/16 08:38:48;;;;;;;3.75;3.20;;;20.00;48.30;;;;;;5094554;28;20054;-10
2022/11/16 08:41:16;;;;;;;3.00;2.70;;;20.00;48.30;;;;;;5094675;28;20044;-11
2022/11/16 08:43:49;;;;;;;3.72;2.88;;;20.00;48.30;;;;;;5094487;28;20059;-11
2022/11/16 08:46:16;;;;;;;3.85;2.60;;;20.00;48.30;;;;;;5094516;28;20051;-10
2022/11/16 08:48:44;;;;;;;3.25;2.95;;;20.00;48.30;;;;;;5094845;28;20138;-11
2022/11/16 08:51:13;;;;;;;3.17;2.88;;;20.00;48.30;;;;;;5094802;28;20051;-12
2022/11/16 08:53:42;;;;;;;2.65;2.45;;;20.00;48.30;;;;;;5093245;28;20047;-12
2022/11/16 08:56:13;;;;;;;2.80;2.58;;;20.10;48.30;;;;;;5094115;28;20578;-12
2022/11/16 08:58:45;;;;;;;2.97;2.72;;;20.10;48.30;;;;;;5093945;28;20063;-12
2022/11/16 09:01:15;;;;;;;2.92;2.60;;;20.10;48.20;;;;;;5111096;28;20093;-12
2022/11/16 09:03:41;;;;;;;2.70;2.50;;;20.10;48.20;;;;;;5094213;28;20089;-12
2022/11/16 09:06:09;;;;;;;3.30;2.85;;;20.10;48.20;;;;;;5110883;28;20457;-13
2022/11/16 09:08:36;;;;;;;3.53;3.05;;;20.10;48.20;;;;;;5112290;28;20058;-15
2022/11/16 09:11:07;;;;;;;3.15;2.85;;;20.10;48.20;;;;;;5113803;28;20075;-13
2022/11/16 09:13:34;;;;;;;3.05;2.75;;;20.10;48.20;;;;;;5113778;28;20044;-13
2022/11/16 09:16:03;;;;;;;3.42;3.03;;;20.10;48.20;;;;;;5113867;28;20451;-13
2022/11/16 09:18:30;;;;;;;3.40;2.78;;;20.10;48.10;;;;;;5114301;28;20071;-12
2022/11/16 09:20:56;;;;;;;3.25;2.67;;;20.10;48.00;;;;;;5115182;28;20047;-12
2022/11/16 09:23:22;;;;;;;2.63;2.42;;;20.20;48.00;;;;;;5115871;28;20051;-12
2022/11/16 09:25:48;;;;;;;3.17;2.88;;;20.10;48.00;;;;;;5116130;28;20048;-12
2022/11/16 09:28:17;;;;;;;3.45;2.88;;;20.10;48.50;;;;;;5115909;28;20066;-11
2022/11/16 09:30:45;;;;;;;3.97;3.15;;;20.10;48.00;;;;;;5115867;28;20123;-12
2022/11/16 09:33:12;;;;;;;3.58;2.90;;;20.10;48.00;;;;;;5115640;28;20074;-12
2022/11/16 09:35:38;;;;;;;3.70;2.75;;;20.00;48.00;;;;;;5115634;28;20441;-12
2022/11/16 09:38:04;;;;;;;3.90;3.50;;;20.10;48.00;;;;;;5115668;28;20117;-12
2022/11/16 09:40:37;;;;;;;3.72;3.05;;;20.00;47.50;;;;;;5115352;28;20055;-12
2022/11/16 09:43:11;;;;;;;4.35;3.63;;;20.00;47.60;;;;;;5115786;28;20493;-12
2022/11/16 09:46:13;;;;;;;3.88;3.47;;;20.00;47.80;;;;;;5095810;28;20131;-12
2022/11/16 09:48:40;;;;;;;4.28;3.67;;;20.00;47.80;;;;;;5082938;28;20047;-12
2022/11/16 09:51:11;;;;;;;3.95;3.45;;;20.00;48.30;;;;;;5115556;28;20047;-12
2022/11/16 09:53:57;;;;;;;3.70;3.33;;;20.00;47.80;;;;;;5111065;28;20108;-12
2022/11/16 09:56:25;;;;;;;3.70;3.20;;;20.00;47.70;;;;;;5095011;28;20465;-12
2022/11/16 09:59:18;;;;;;;6.40;4.00;;;20.00;47.70;;;;;;5115275;28;20050;-12
2022/11/16 10:02:02;;;;;;;4.32;3.72;;;20.00;47.70;;;;;;5115435;28;20059;-12
2022/11/16 10:04:37;;;;;;;5.60;4.07;;;20.10;47.80;;;;;;5115307;28;20388;-12
2022/11/16 10:07:18;;;;;;;4.93;3.95;;;20.10;47.80;;;;;;5115721;28;20070;-12
2022/11/16 10:09:46;;;;;;;5.18;3.83;;;20.10;47.70;;;;;;5115293;28;20052;-12
2022/11/16 10:12:30;;;;;;;4.80;3.85;;;20.10;47.70;;;;;;5114975;28;20048;-10
2022/11/16 10:15:27;;;;;;;3.90;3.45;;;20.10;47.70;;;;;;5114877;28;20047;-18
2022/11/16 10:18:28;;;;;;;4.65;3.45;;;20.10;47.80;;;;;;5115005;28;20146;-12
2022/11/16 10:21:27;;;;;;;4.57;3.80;;;20.10;47.70;;;;;;5114235;28;20441;-11
2022/11/16 10:24:09;;;;;;;4.90;4.18;;;20.10;47.70;;;;;;5079915;28;20142;-11
2022/11/16 10:27:06;;;;;;;5.28;4.28;;;20.10;47.70;;;;;;5114646;28;20079;-12
2022/11/16 10:29:38;;;;;;;4.72;3.80;;;20.10;47.70;;;;;;5115126;28;20043;-11
2022/11/16 10:32:16;;;;;;;4.72;3.88;;;20.10;47.70;;;;;;5114927;28;20047;-11
2022/11/16 10:34:50;;;;;;;4.90;4.28;;;20.10;47.80;;;;;;5114646;28;20074;-11
2022/11/16 10:37:16;;;;;;;6.28;4.15;;;20.10;47.80;;;;;;5115264;28;20174;-11
2022/11/16 10:39:43;;;;;;;3.95;3.53;;;20.10;47.80;;;;;;5114634;28;20112;-11
2022/11/16 10:42:17;;;;;;;4.45;4.03;;;20.10;47.80;;;;;;5114800;28;20441;-11
2022/11/16 10:44:50;;;;;;;5.03;4.28;;;20.10;47.80;;;;;;5114732;28;20047;-11
2022/11/16 10:47:31;;;;;;;4.10;3.67;;;20.10;47.80;;;;;;5115058;28;20043;-11
2022/11/16 10:50:07;;;;;;;5.03;3.85;;;20.10;47.80;;;;;;5114640;28;20062;-11
2022/11/16 10:52:33;;;;;;;4.50;3.92;;;20.10;47.80;;;;;;5114345;28;20051;-12
2022/11/16 10:54:59;;;;;;;4.50;3.63;;;20.00;47.80;;;;;;5114932;28;20051;-10
2022/11/16 10:57:44;;;;;;;5.97;3.90;;;20.10;47.80;;;;;;5114995;28;20196;-10
2022/11/16 11:00:11;;;;;;;4.68;3.95;;;20.00;47.70;;;;;;5114265;28;20051;-10
2022/11/16 11:02:46;;;;;;;4.85;4.15;;;20.10;47.80;;;;;;5114429;28;20063;-11
2022/11/16 11:05:19;;;;;;;4.88;4.13;;;20.00;47.80;;;;;;5114545;28;20499;-10
2022/11/16 11:08:04;;;;;;;5.72;4.40;;;20.00;47.80;;;;;;5114043;28;20185;-10
2022/11/16 11:10:32;;;;;;;5.28;4.22;;;20.00;48.30;;;;;;5114215;28;20047;-10
2022/11/16 11:13:03;;;;;;;6.05;4.20;;;20.00;47.80;;;;;;5113888;28;20069;-10
2022/11/16 11:15:30;;;;;;;;;;;20.10;47.90;;;;;;5114347;28;20051;-12
2022/11/16 11:18:24;;;;;;;4.97;3.90;;;20.10;47.80;;;;;;5113433;28;19939;-11
2022/11/16 11:21:15;;;;;;;4.50;3.85;;;20.10;47.80;;;;;;5114302;28;20091;-10
2022/11/16 11:23:46;;;;;;;4.43;3.78;;;20.10;47.80;;;;;;5114001;28;20051;-10
2022/11/16 11:26:23;;;;;;;;;;;20.10;47.80;;;;;;5114257;28;20081;-10
2022/11/16 11:28:50;;;;;;;4.75;4.03;;;20.10;47.80;;;;;;5114495;28;19916;-10
2022/11/16 11:31:25;;;;;;;4.60;3.80;;;20.10;47.80;;;;;;5113881;28;20048;-11
2022/11/16 11:33:54;;;;;;;5.15;4.18;;;20.10;47.80;;;;;;5113906;28;20039;-10
2022/11/16 11:36:42;;;;;;;5.97;4.10;;;20.00;47.80;;;;;;5113540;28;20050;-10
2022/11/16 11:39:12;;;;;;;6.70;3.90;;;20.00;47.80;;;;;;5113160;28;20047;-10
2022/11/16 11:41:43;;;;;;;4.57;3.80;;;20.10;47.90;;;;;;5114109;28;20079;-10
2022/11/16 11:44:12;;;;;;;5.03;4.18;;;20.10;47.80;;;;;;5113941;28;20048;-10
2022/11/16 11:46:43;;;;;;;5.30;4.32;;;20.10;47.80;;;;;;5113402;28;20058;-10
2022/11/16 11:49:21;;;;;;;4.13;3.70;;;20.10;47.80;;;;;;5113747;28;20399;-10
2022/11/16 11:51:48;;;;;;;3.88;3.47;;;20.10;47.80;;;;;;5113269;28;20055;-10
2022/11/16 11:54:26;;;;;;;5.13;4.03;;;20.10;47.90;;;;;;5113393;28;20052;-10
2022/11/16 11:56:53;;;;;;;5.10;3.78;;;20.10;47.80;;;;;;5113260;28;20047;-10
2022/11/16 11:59:24;;;;;;;4.97;3.47;;;20.10;47.90;;;;;;5113299;28;20047;-10
2022/11/16 12:01:59;;;;;;;;;;;20.10;47.90;;;;;;5094150;28;20141;-10
2022/11/16 12:04:34;;;;;;;5.07;4.10;;;20.10;47.90;;;;;;5113402;28;19976;-10
2022/11/16 12:07:07;;;;;;;4.68;4.05;;;20.10;47.90;;;;;;5113552;28;20118;-10
2022/11/16 12:09:34;;;;;;;4.88;4.00;;;20.10;47.90;;;;;;5113509;28;20070;-10
2022/11/16 12:12:31;;;;;;;4.63;3.88;;;20.10;47.90;;;;;;5113335;28;20054;-10
2022/11/16 12:15:06;;;;;;;4.82;3.65;;;20.10;48.20;;;;;;5112763;28;20492;-11
2022/11/16 12:18:17;;;;;;;4.32;3.75;;;20.10;47.90;;;;;;5113424;28;20112;-10
2022/11/16 12:20:48;;;;;;;4.63;3.80;;;20.10;47.90;;;;;;5113110;28;20143;-10
2022/11/16 12:23:37;;;;;;;5.00;3.90;;;20.10;47.80;;;;;;5113080;28;20054;-10
2022/11/16 12:26:06;;;;;;;4.15;3.50;;;20.10;47.80;;;;;;5113268;28;20476;-10
2022/11/16 12:29:02;;;;;;;4.75;4.05;;;20.10;47.80;;;;;;5112923;28;20054;-10
2022/11/16 12:31:50;;;;;;;5.05;4.22;;;20.10;47.80;;;;;;5112871;28;20055;-10
2022/11/16 12:34:34;;;;;;;5.80;4.10;;;20.10;47.80;;;;;;5112592;28;20381;-10
2022/11/16 12:37:19;;;;;;;5.05;4.00;;;20.10;47.80;;;;;;5113208;28;20134;-10
2022/11/16 12:40:06;;;;;;;5.05;4.28;;;20.10;47.80;;;;;;5112945;28;20040;-10
2022/11/16 12:42:44;;;;;;;5.30;4.10;;;20.10;47.80;;;;;;5111784;28;20063;-10
2022/11/16 12:45:37;;;;;;;5.65;3.80;;;20.10;47.80;;;;;;5112871;28;20134;-10
2022/11/16 12:48:46;;;;;;;4.10;3.63;;;20.10;47.80;;;;;;5112710;28;20055;-10
2022/11/16 12:51:42;;;;;;;4.13;3.67;;;20.10;47.80;;;;;;5113065;28;20062;-10
2022/11/16 12:54:52;;;;;;;3.90;3.45;;;20.10;47.80;;;;;;5112774;28;20389;-10
2022/11/16 12:57:40;;;;;;;5.45;4.03;;;20.10;47.80;;;;;;5112605;28;20107;-10
2022/11/16 13:00:10;;;;;;;6.30;4.05;;;20.10;47.80;;;;;;5112592;28;20043;-10
2022/11/16 13:03:02;;;;;;;4.68;4.18;;;20.10;47.90;;;;;;5112940;28;20050;-10
2022/11/16 13:05:45;;;;;;;3.97;3.45;;;20.10;47.90;;;;;;5112646;28;20078;-11
2022/11/16 13:08:39;;;;;;;5.20;4.30;;;20.10;47.80;;;;;;5112915;28;20043;-10
2022/11/16 13:11:07;;;;;;;5.25;4.05;;;20.10;47.80;;;;;;5060416;28;20052;-10
2022/11/16 13:13:35;;;;;;;5.40;3.33;;;20.10;47.80;;;;;;5112453;28;20054;-10
2022/11/16 13:16:03;;;;;;;5.25;3.92;;;20.10;47.80;;;;;;5112405;28;20056;-10
2022/11/16 13:18:31;;;;;;;4.35;3.72;;;20.10;47.80;;;;;;5112933;28;20170;-10
2022/11/16 13:21:01;;;;;;;4.40;4.00;;;20.10;47.80;;;;;;5108334;28;20051;-10
2022/11/16 13:23:30;;;;;;;5.38;4.20;;;20.10;47.80;;;;;;5094191;28;20099;-10
2022/11/16 13:26:09;;;;;;;5.43;3.60;;;20.10;47.80;;;;;;5112043;28;20451;-10
2022/11/16 13:28:58;;;;;;;4.72;3.83;;;20.10;47.80;;;;;;5112542;28;20072;-10
2022/11/16 13:31:46;;;;;;;4.93;4.00;;;20.10;47.80;;;;;;5112051;28;20063;-10
2022/11/16 13:34:24;;;;;;;4.85;3.80;;;20.10;48.30;;;;;;5112483;28;20086;-10
2022/11/16 13:36:50;;;;;;;4.88;4.18;;;20.10;47.80;;;;;;5112284;28;20430;-10
2022/11/16 13:39:18;;;;;;;4.38;3.55;;;20.10;47.80;;;;;;5111757;28;20052;-10
2022/11/16 13:42:09;;;;;;;5.32;4.15;;;20.10;47.90;;;;;;5111814;28;20059;-10
2022/11/16 13:44:36;;;;;;;5.45;3.90;;;20.10;47.90;;;;;;5094029;28;20087;-10
2022/11/16 13:47:05;;;;;;;4.20;3.75;;;20.10;47.80;;;;;;5112201;28;20056;-10
2022/11/16 13:49:39;;;;;;;5.70;3.70;;;20.10;47.80;;;;;;5112033;28;20507;-10
2022/11/16 13:52:11;;;;;;;4.85;4.05;;;20.10;47.90;;;;;;5112472;28;20399;-10